Time;durP1;ratioP1;P1;durP2;ratioP2;P2;SDS_P1;SDS_P2;PMS_P1;PMS_P2;Temp;Humidity;BMP_temperature;BMP_pressure;BME280_temperature;BME280_humidity;BME280_pressure;Samples;Min_cycle;Max_cycle;Signal;HPM_P1;HPM_P2
2022/03/07 00:01:06;;;;;;;9.13;6.03;;;;;;;-0.37;65.84;102046.88;7394603;19;20483;-67
2022/03/07 00:03:34;;;;;;;8.52;6.70;;;;;;;-0.36;65.65;102052.88;7394442;19;20368;-67
2022/03/07 00:06:02;;;;;;;9.52;6.38;;;;;;;-0.36;65.75;102047.72;7396592;19;20037;-67
2022/03/07 00:08:30;;;;;;;10.40;6.40;;;;;;;-0.38;65.86;102039.03;7396470;19;20014;-66
2022/03/07 00:11:02;;;;;;;8.82;6.43;;;;;;;-0.39;65.73;102043.31;7395228;19;20027;-67
2022/03/07 00:13:30;;;;;;;7.03;5.85;;;;;;;-0.39;65.77;102035.59;7395191;19;20035;-66
2022/03/07 00:15:58;;;;;;;9.75;6.53;;;;;;;-0.39;65.86;102045.00;7396435;19;20026;-66
2022/03/07 00:18:26;;;;;;;7.57;5.90;;;;;;;-0.39;66.08;102035.59;7394427;19;20045;-66
2022/03/07 00:20:55;;;;;;;6.90;6.05;;;;;;;-0.40;65.96;102043.25;7394487;19;20010;-66
2022/03/07 00:23:23;;;;;;;7.40;6.28;;;;;;;-0.41;66.01;102042.34;7394787;19;20022;-66
2022/03/07 00:25:51;;;;;;;6.97;6.25;;;;;;;-0.42;66.06;102047.47;7394410;19;20018;-67
2022/03/07 00:28:22;;;;;;;7.10;5.72;;;;;;;-0.45;66.31;102045.63;7394239;19;20022;-66
2022/03/07 00:30:50;;;;;;;6.85;5.82;;;;;;;-0.48;66.45;102036.88;7394616;19;20027;-66
2022/03/07 00:33:19;;;;;;;7.20;5.90;;;;;;;-0.52;66.62;102041.91;7394484;19;20037;-66
2022/03/07 00:35:47;;;;;;;8.88;6.50;;;;;;;-0.56;66.43;102039.97;7393956;19;20036;-66
2022/03/07 00:38:15;;;;;;;10.55;5.90;;;;;;;-0.60;66.72;102034.63;7394789;19;20022;-66
2022/03/07 00:40:43;;;;;;;10.13;5.80;;;;;;;-0.57;66.89;102055.38;7393854;19;20022;-66
2022/03/07 00:43:11;;;;;;;8.32;6.57;;;;;;;-0.58;66.54;102059.66;7393890;19;20373;-66
2022/03/07 00:45:42;;;;;;;7.05;6.35;;;;;;;-0.58;66.78;102051.03;7393712;19;20035;-66
2022/03/07 00:48:10;;;;;;;7.65;6.88;;;;;;;-0.58;66.79;102057.09;7395801;19;20022;-66
2022/03/07 00:50:42;;;;;;;8.40;7.38;;;;;;;-0.58;66.89;102051.94;7395301;19;20022;-67
2022/03/07 00:53:11;;;;;;;7.80;7.00;;;;;;;-0.58;66.80;102051.94;7394111;19;20025;-66
2022/03/07 00:55:39;;;;;;;8.10;6.47;;;;;;;-0.59;67.05;102064.75;7395097;19;20022;-66
2022/03/07 00:58:08;;;;;;;9.63;7.15;;;;;;;-0.63;67.08;102058.59;7394384;19;20039;-66
2022/03/07 01:00:37;;;;;;;9.00;7.15;;;;;;;-0.61;67.04;102066.38;7395125;19;20022;-66
2022/03/07 01:03:12;;;;;;;7.82;6.47;;;;;;;-0.61;67.08;102067.25;7393000;19;20035;-66
2022/03/07 01:05:40;;;;;;;8.05;7.00;;;;;;;-0.62;67.30;102062.94;7394570;19;20512;-67
2022/03/07 01:08:09;;;;;;;9.27;6.30;;;;;;;-0.61;67.25;102066.38;7392985;19;20022;-67
2022/03/07 01:10:37;;;;;;;9.45;6.63;;;;;;;-0.62;67.12;102062.94;7393645;19;20023;-67
2022/03/07 01:13:06;;;;;;;11.18;7.90;;;;;;;-0.61;67.41;102059.50;7393340;19;20019;-67
2022/03/07 01:15:35;;;;;;;7.50;6.80;;;;;;;-0.63;67.26;102056.00;7392642;19;20023;-67
2022/03/07 01:18:04;;;;;;;10.85;7.13;;;;;;;-0.62;67.42;102057.78;7393859;19;20031;-67
2022/03/07 01:20:35;;;;;;;10.43;6.97;;;;;;;-0.62;67.65;102056.88;7392611;19;20018;-67
2022/03/07 01:23:03;;;;;;;7.60;6.55;;;;;;;-0.63;67.69;102056.00;7392089;19;20483;-68
2022/03/07 01:25:31;;;;;;;8.23;7.00;;;;;;;-0.63;67.79;102055.09;7394345;19;20011;-68
2022/03/07 01:28:00;;;;;;;9.57;6.85;;;;;;;-0.64;67.50;102046.50;7394374;19;20019;-67
2022/03/07 01:30:28;;;;;;;11.23;7.18;;;;;;;-0.64;67.58;102054.25;7392433;19;20035;-68
2022/03/07 01:32:57;;;;;;;9.43;7.07;;;;;;;-0.64;67.80;102053.34;7391687;19;20356;-67
2022/03/07 01:35:25;;;;;;;7.75;6.70;;;;;;;-0.71;67.83;102047.94;7391958;19;20034;-68
2022/03/07 01:37:56;;;;;;;8.95;7.03;;;;;;;-0.67;67.66;102057.56;7394196;19;20496;-66
2022/03/07 01:40:24;;;;;;;7.70;6.60;;;;;;;-0.70;67.92;102051.38;7401854;19;20026;-67
2022/03/07 01:42:53;;;;;;;9.00;7.05;;;;;;;-0.71;67.92;102053.09;7399769;19;20391;-67
2022/03/07 01:45:22;;;;;;;9.52;7.28;;;;;;;-0.73;68.17;102052.13;7401256;19;20022;-67
2022/03/07 01:47:51;;;;;;;8.35;7.30;;;;;;;-0.75;67.93;102053.72;7401192;19;20011;-67
2022/03/07 01:50:21;;;;;;;9.25;7.03;;;;;;;-0.79;68.04;102054.41;7401034;19;20014;-66
2022/03/07 01:52:53;;;;;;;9.95;7.65;;;;;;;-0.83;68.07;102052.53;7399272;19;20357;-67
2022/03/07 01:55:24;;;;;;;9.05;7.57;;;;;;;-0.87;68.54;102046.34;7401343;19;20023;-67
2022/03/07 01:57:52;;;;;;;8.73;6.70;;;;;;;-0.90;68.40;102043.59;7398495;19;20014;-66
2022/03/07 02:00:22;;;;;;;8.25;6.88;;;;;;;-0.93;68.34;102046.03;7398359;19;20031;-67
2022/03/07 02:02:51;;;;;;;10.25;7.15;;;;;;;-0.97;68.58;102039.00;7398379;19;20018;-67
2022/03/07 02:05:19;;;;;;;6.68;5.97;;;;;;;-1.00;68.64;102038.84;7400169;19;20515;-67
2022/03/07 02:07:47;;;;;;;11.20;6.88;;;;;;;-1.03;68.66;102033.56;7397618;19;20606;-66
2022/03/07 02:10:16;;;;;;;8.80;7.25;;;;;;;-1.09;68.84;102031.56;7397500;19;20015;-67
2022/03/07 02:12:46;;;;;;;11.45;7.18;;;;;;;-1.13;68.78;102037.38;7399621;19;20022;-67
2022/03/07 02:15:15;;;;;;;10.65;7.32;;;;;;;-1.19;69.10;102031.94;7400571;19;20035;-67
2022/03/07 02:17:46;;;;;;;9.85;6.65;;;;;;;-1.24;69.07;102038.56;7397834;19;20031;-67
2022/03/07 02:20:15;;;;;;;8.10;7.07;;;;;;;-1.28;69.40;102031.53;7399860;19;20483;-67
2022/03/07 02:22:46;;;;;;;9.88;7.00;;;;;;;-1.35;69.21;102027.78;7397474;19;20022;-66
2022/03/07 02:25:15;;;;;;;13.32;7.40;;;;;;;-1.39;69.51;102037.03;7400359;19;20022;-66
2022/03/07 02:27:43;;;;;;;12.43;7.30;;;;;;;-1.43;69.75;102036.81;7398233;19;20023;-67
2022/03/07 02:30:12;;;;;;;9.13;6.18;;;;;;;-1.49;69.46;102030.56;7397470;19;20022;-67
2022/03/07 02:32:43;;;;;;;7.97;6.88;;;;;;;-1.53;69.71;102036.38;7397184;19;20018;-67
2022/03/07 02:35:13;;;;;;;7.82;6.90;;;;;;;-1.59;69.87;102023.22;7400435;19;20018;-66
2022/03/07 02:37:41;;;;;;;8.95;6.63;;;;;;;-1.65;70.06;102028.91;7399427;19;20014;-67
2022/03/07 02:40:13;;;;;;;11.30;7.40;;;;;;;-1.71;70.20;102022.59;7396958;19;20014;-66
2022/03/07 02:42:41;;;;;;;10.15;7.88;;;;;;;-1.78;70.02;102018.84;7398846;19;20039;-67
2022/03/07 02:45:11;;;;;;;10.48;7.18;;;;;;;-1.84;70.18;102019.41;7396578;19;20018;-67
2022/03/07 02:47:39;;;;;;;8.07;6.88;;;;;;;-1.88;70.38;102022.66;7399126;19;20082;-67
2022/03/07 02:50:08;;;;;;;11.90;7.75;;;;;;;-1.92;70.52;102022.41;7397637;19;20014;-67
2022/03/07 02:52:43;;;;;;;8.35;7.53;;;;;;;-1.97;70.75;102017.06;7396721;19;20022;-66
2022/03/07 02:55:14;;;;;;;8.68;7.78;;;;;;;-2.02;70.77;102014.25;7396791;19;20026;-67
2022/03/07 02:57:49;;;;;;;9.93;8.02;;;;;;;-2.05;70.58;102013.22;7398863;19;20035;-67
2022/03/07 03:00:17;;;;;;;11.18;7.60;;;;;;;-2.10;70.75;102006.94;7398021;19;20026;-66
2022/03/07 03:02:46;;;;;;;9.38;8.43;;;;;;;-2.14;71.29;102011.06;7396783;19;20023;-67
2022/03/07 03:05:14;;;;;;;13.88;8.55;;;;;;;-2.26;71.70;101998.47;7398103;19;20492;-66
2022/03/07 03:07:42;;;;;;;10.80;8.75;;;;;;;-2.22;71.43;102020.09;7398480;19;20041;-67
2022/03/07 03:10:13;;;;;;;12.20;8.48;;;;;;;-2.26;71.90;102019.03;7395398;19;20493;-66
2022/03/07 03:12:42;;;;;;;13.82;8.63;;;;;;;-2.31;71.55;102015.34;7397546;19;20015;-66
2022/03/07 03:15:11;;;;;;;11.38;9.10;;;;;;;-2.31;71.58;102015.34;7398119;19;20041;-66
2022/03/07 03:17:41;;;;;;;9.63;8.32;;;;;;;-2.33;72.26;102011.81;7397450;19;20494;-67
2022/03/07 03:20:11;;;;;;;11.50;8.80;;;;;;;-2.35;71.92;102008.25;7396349;19;20018;-66
2022/03/07 03:22:40;;;;;;;10.05;8.95;;;;;;;-2.38;72.57;102008.13;7395700;19;20479;-68
2022/03/07 03:25:10;;;;;;;10.88;8.65;;;;;;;-2.41;72.26;102002.81;7397134;19;20032;-67
2022/03/07 03:27:41;;;;;;;12.52;9.23;;;;;;;-2.42;72.61;102006.19;7399512;19;20035;-67
2022/03/07 03:30:12;;;;;;;10.63;9.52;;;;;;;-2.45;72.93;102001.78;7397023;19;20023;-67
2022/03/07 03:32:40;;;;;;;11.02;8.98;;;;;;;-2.47;72.73;102005.97;7395778;19;20019;-66
2022/03/07 03:35:09;;;;;;;11.32;8.65;;;;;;;-2.49;72.73;102000.75;7396829;19;20505;-66
2022/03/07 03:37:38;;;;;;;14.05;9.77;;;;;;;-2.50;72.98;102005.81;7395239;19;20026;-66
2022/03/07 03:40:09;;;;;;;14.00;9.93;;;;;;;-2.52;72.91;102009.97;7395449;19;20143;-67
2022/03/07 03:42:37;;;;;;;15.95;9.60;;;;;;;-2.54;73.14;102009.00;7396781;19;20022;-67
2022/03/07 03:45:09;;;;;;;12.05;9.50;;;;;;;-2.56;73.61;102014.06;7397247;19;20039;-66
2022/03/07 03:47:38;;;;;;;14.70;9.75;;;;;;;-2.58;74.25;102013.09;7397596;19;20039;-66
2022/03/07 03:50:08;;;;;;;12.85;9.20;;;;;;;-2.61;74.80;102010.38;7397095;19;20014;-67
2022/03/07 03:52:37;;;;;;;11.88;9.23;;;;;;;-2.65;74.82;102008.44;7395825;19;20035;-66
2022/03/07 03:55:06;;;;;;;11.77;10.15;;;;;;;-2.68;74.33;101998.00;7395152;19;20022;-67
2022/03/07 03:57:34;;;;;;;14.45;9.73;;;;;;;-2.69;74.18;102003.94;7395055;19;20018;-67
2022/03/07 04:00:02;;;;;;;12.95;9.80;;;;;;;-2.70;74.44;102007.34;7395503;19;20018;-67
2022/03/07 04:02:33;;;;;;;11.35;9.45;;;;;;;-2.70;74.50;101999.63;7393257;19;20532;-66
2022/03/07 04:05:01;;;;;;;11.43;9.40;;;;;;;-2.71;74.36;102000.41;7397092;19;20035;-66
2022/03/07 04:07:30;;;;;;;10.25;8.98;;;;;;;-2.71;74.34;102005.56;7394588;19;20035;-67
2022/03/07 04:09:58;;;;;;;10.93;9.40;;;;;;;-2.73;74.19;102000.34;7396487;19;20022;-67
2022/03/07 04:12:26;;;;;;;13.68;9.57;;;;;;;-2.73;74.28;102008.06;7394916;19;20031;-66
2022/03/07 04:14:54;;;;;;;12.60;9.38;;;;;;;-2.72;74.12;102006.34;7396394;19;20022;-66
2022/03/07 04:17:22;;;;;;;10.63;9.45;;;;;;;-2.74;74.46;102014.00;7394803;19;20018;-67
2022/03/07 04:19:53;;;;;;;14.70;9.80;;;;;;;-2.76;74.12;102012.16;7395119;19;20031;-67
2022/03/07 04:22:21;;;;;;;15.73;9.45;;;;;;;-2.78;74.27;102018.06;7396218;19;20026;-67
2022/03/07 04:24:49;;;;;;;12.85;9.38;;;;;;;-2.78;74.38;102022.31;7395832;19;20482;-66
2022/03/07 04:27:18;;;;;;;12.73;9.60;;;;;;;-2.80;74.47;102027.38;7394119;19;20029;-67
2022/03/07 04:29:46;;;;;;;13.15;9.23;;;;;;;-2.84;74.37;102017.75;7394014;19;20041;-66
2022/03/07 04:32:14;;;;;;;13.07;9.73;;;;;;;-2.84;74.55;102028.03;7394090;19;20037;-66
2022/03/07 04:34:42;;;;;;;12.13;9.52;;;;;;;-2.86;74.88;102019.34;7393382;19;20479;-66
2022/03/07 04:37:13;;;;;;;12.65;9.82;;;;;;;-2.87;74.78;102033.00;7395459;19;20023;-67
2022/03/07 04:39:41;;;;;;;12.00;9.70;;;;;;;-2.89;74.84;102021.75;7394709;19;20010;-67
2022/03/07 04:42:10;;;;;;;13.20;9.93;;;;;;;-2.89;75.17;102023.41;7394570;19;20022;-67
2022/03/07 04:44:38;;;;;;;11.70;9.40;;;;;;;-2.92;75.08;102029.28;7395048;19;20022;-67
2022/03/07 04:47:06;;;;;;;13.07;9.75;;;;;;;-2.94;75.76;102030.91;7393459;19;20015;-67
2022/03/07 04:49:35;;;;;;;13.68;10.07;;;;;;;-2.95;75.20;102024.00;7395137;19;20019;-67
2022/03/07 04:52:03;;;;;;;14.05;10.32;;;;;;;-2.96;75.57;102027.34;7394522;19;20019;-67
2022/03/07 04:54:33;;;;;;;12.85;9.52;;;;;;;-2.98;75.76;102032.41;7394817;19;20509;-68
2022/03/07 04:57:02;;;;;;;13.30;9.60;;;;;;;-2.97;75.38;102033.28;7393883;19;20043;-67
2022/03/07 04:59:30;;;;;;;12.23;9.80;;;;;;;-2.97;75.22;102038.41;7393860;19;20035;-66
2022/03/07 05:01:58;;;;;;;12.63;10.00;;;;;;;-2.98;75.53;102036.69;7393925;19;20504;-66
2022/03/07 05:04:26;;;;;;;16.88;10.60;;;;;;;-2.99;76.15;102034.91;7394295;19;20017;-66
2022/03/07 05:06:54;;;;;;;12.52;9.57;;;;;;;-2.99;76.26;102042.59;7395110;19;20022;-67
2022/03/07 05:09:23;;;;;;;13.10;10.93;;;;;;;-3.01;76.46;102044.19;7392219;19;20022;-68
2022/03/07 05:11:53;;;;;;;12.98;10.73;;;;;;;-3.04;76.50;102042.34;7392387;19;20031;-66
2022/03/07 05:14:21;;;;;;;11.52;10.32;;;;;;;-3.04;76.91;102042.34;7400114;19;20019;-67
2022/03/07 05:16:50;;;;;;;16.38;11.25;;;;;;;-3.06;76.77;102046.50;7401655;19;20015;-67
2022/03/07 05:19:18;;;;;;;13.38;10.55;;;;;;;-3.06;76.59;102040.50;7400859;19;20035;-66
2022/03/07 05:21:46;;;;;;;13.75;10.10;;;;;;;-3.07;76.42;102039.63;7400850;19;20022;-66
2022/03/07 05:24:14;;;;;;;13.73;10.73;;;;;;;-3.05;76.58;102042.28;7401827;19;20007;-66
2022/03/07 05:26:42;;;;;;;15.10;10.73;;;;;;;-3.05;76.56;102045.72;7398570;19;20014;-66
2022/03/07 05:29:14;;;;;;;13.23;10.52;;;;;;;-3.05;76.19;102050.84;7401269;19;20018;-66
2022/03/07 05:31:42;;;;;;;16.10;10.63;;;;;;;-3.04;76.65;102052.63;7398712;19;20025;-66
2022/03/07 05:34:10;;;;;;;14.60;10.63;;;;;;;-3.04;76.43;102059.44;7397493;19;20018;-67
2022/03/07 05:36:38;;;;;;;15.23;10.68;;;;;;;-3.03;76.00;102056.06;7400652;19;20023;-67
2022/03/07 05:39:07;;;;;;;15.52;11.90;;;;;;;-3.08;76.90;102057.50;7400152;19;20022;-67
2022/03/07 05:41:36;;;;;;;16.95;10.82;;;;;;;-3.02;76.39;102068.09;7399889;19;20021;-67
2022/03/07 05:44:05;;;;;;;15.18;11.82;;;;;;;-3.02;76.24;102065.53;7399692;19;20549;-67
2022/03/07 05:46:36;;;;;;;13.88;10.00;;;;;;;-3.01;76.17;102077.56;7397548;19;20032;-67
2022/03/07 05:49:04;;;;;;;12.73;10.35;;;;;;;-3.01;76.60;102077.56;7400585;19;20036;-66
2022/03/07 05:51:32;;;;;;;16.55;10.75;;;;;;;-3.01;76.69;102077.56;7399544;19;20014;-66
2022/03/07 05:54:00;;;;;;;17.25;11.55;;;;;;;-3.01;77.39;102080.16;7399268;19;20027;-67
2022/03/07 05:56:28;;;;;;;13.38;11.05;;;;;;;-3.04;77.32;102070.59;7399551;19;20014;-67
2022/03/07 05:58:57;;;;;;;18.25;11.18;;;;;;;-3.02;76.74;102068.09;7396556;19;20346;-66
2022/03/07 06:01:25;;;;;;;15.20;10.88;;;;;;;-3.01;76.93;102075.91;7399328;19;20031;-67
2022/03/07 06:03:55;;;;;;;13.98;10.70;;;;;;;-3.00;76.70;102067.38;7396262;19;20479;-66
2022/03/07 06:06:45;;;;;;;16.52;11.00;;;;;;;-2.99;77.07;102074.28;7398878;19;20018;-67
2022/03/07 06:09:14;;;;;;;15.45;10.88;;;;;;;-2.98;77.12;102075.19;7399219;19;20031;-66
2022/03/07 06:11:55;;;;;;;14.35;11.00;;;;;;;-2.96;77.22;102076.16;7396373;19;20007;-67
2022/03/07 06:14:23;;;;;;;12.82;10.80;;;;;;;-2.98;78.04;102076.06;7399270;19;20015;-66
2022/03/07 06:16:51;;;;;;;18.42;11.38;;;;;;;-2.96;77.63;102081.28;7399262;19;20041;-66
2022/03/07 06:19:22;;;;;;;15.20;11.80;;;;;;;-2.97;78.40;102074.38;7397766;19;20491;-66
2022/03/07 06:21:50;;;;;;;12.65;9.90;;;;;;;-2.95;77.35;102078.78;7397499;19;20018;-66
2022/03/07 06:24:18;;;;;;;12.98;10.40;;;;;;;-2.92;77.85;102080.66;7396912;19;20365;-67
2022/03/07 06:26:46;;;;;;;12.68;10.20;;;;;;;-2.91;78.07;102078.97;7398173;19;20018;-66
2022/03/07 06:29:14;;;;;;;15.98;11.02;;;;;;;-2.88;78.67;102074.91;7398202;19;20483;-66
2022/03/07 06:31:43;;;;;;;13.20;10.00;;;;;;;-2.85;77.87;102077.63;7399320;19;20022;-67
2022/03/07 06:34:12;;;;;;;13.30;10.65;;;;;;;-2.82;78.12;102082.03;7396321;19;20015;-66
2022/03/07 06:36:43;;;;;;;15.75;10.57;;;;;;;-2.80;78.15;102070.16;7399528;19;20019;-67
2022/03/07 06:39:11;;;;;;;11.48;10.27;;;;;;;-2.77;78.69;102070.31;7397177;19;20014;-66
2022/03/07 06:41:39;;;;;;;15.43;11.10;;;;;;;-2.74;78.37;102072.16;7396469;19;20015;-67
2022/03/07 06:44:07;;;;;;;15.13;10.98;;;;;;;-2.72;78.20;102078.28;7397495;19;20483;-67
2022/03/07 06:46:36;;;;;;;13.25;9.88;;;;;;;-2.71;78.43;102075.78;7398312;19;20022;-67
2022/03/07 06:49:04;;;;;;;13.77;9.93;;;;;;;-2.70;77.95;102074.13;7398309;19;20019;-67
2022/03/07 06:51:32;;;;;;;14.05;10.70;;;;;;;-2.66;77.76;102076.94;7396217;19;20014;-68
2022/03/07 06:54:03;;;;;;;12.57;9.80;;;;;;;-2.61;78.06;102072.03;7395433;19;20037;-66
2022/03/07 06:56:31;;;;;;;13.52;11.27;;;;;;;-2.57;78.48;102073.97;7398540;19;20018;-66
2022/03/07 06:58:59;;;;;;;15.95;10.70;;;;;;;-2.56;78.08;102070.59;7398151;19;20111;-66
2022/03/07 07:01:27;;;;;;;12.88;11.30;;;;;;;-2.51;78.38;102074.28;7395595;19;20025;-66
2022/03/07 07:03:56;;;;;;;20.00;12.90;;;;;;;-2.48;77.88;102079.63;7394985;19;20355;-67
2022/03/07 07:06:24;;;;;;;15.75;11.30;;;;;;;-2.43;78.42;102089.25;7397873;19;20022;-67
2022/03/07 07:08:52;;;;;;;18.10;12.20;;;;;;;-2.39;77.79;102091.16;7397563;19;20483;-67
2022/03/07 07:11:22;;;;;;;16.70;10.38;;;;;;;-2.33;78.06;102092.38;7395418;19;20010;-66
2022/03/07 07:13:51;;;;;;;14.05;10.48;;;;;;;-2.28;78.00;102087.47;7396012;19;20019;-66
2022/03/07 07:16:20;;;;;;;14.60;10.52;;;;;;;-2.23;78.00;102093.75;7397517;19;20031;-67
2022/03/07 07:18:48;;;;;;;16.30;11.68;;;;;;;-2.19;78.61;102097.38;7397616;19;20023;-67
2022/03/07 07:21:16;;;;;;;17.30;11.23;;;;;;;-2.14;78.52;102099.38;7395401;19;20019;-67
2022/03/07 07:23:44;;;;;;;12.82;10.93;;;;;;;-2.09;78.75;102096.16;7395239;19;20022;-67
2022/03/07 07:26:13;;;;;;;14.77;10.60;;;;;;;-2.05;78.47;102096.38;7396932;19;20483;-67
2022/03/07 07:28:45;;;;;;;14.70;10.70;;;;;;;-1.99;78.31;102088.97;7397084;19;20011;-67
2022/03/07 07:31:13;;;;;;;18.05;11.02;;;;;;;-1.92;78.66;102091.88;7397176;19;20018;-67
2022/03/07 07:33:41;;;;;;;11.50;9.63;;;;;;;-1.87;78.66;102095.56;7394600;19;20483;-67
2022/03/07 07:36:10;;;;;;;13.23;11.00;;;;;;;-1.85;78.17;102087.13;7396183;19;20023;-66
2022/03/07 07:38:38;;;;;;;14.48;11.52;;;;;;;-1.73;77.55;102089.44;7396108;19;20451;-64
2022/03/07 07:41:07;;;;;;;17.02;12.23;;;;;;;-1.66;77.30;102094.06;7395136;19;20010;-67
2022/03/07 07:43:35;;;;;;;16.98;12.27;;;;;;;-1.57;77.79;102097.91;7395480;19;20022;-67
2022/03/07 07:46:06;;;;;;;13.75;10.50;;;;;;;-1.50;77.68;102098.28;7395720;19;20521;-67
2022/03/07 07:48:34;;;;;;;24.00;11.57;;;;;;;-1.42;77.69;102095.22;7396826;19;20015;-66
2022/03/07 07:51:02;;;;;;;19.63;11.27;;;;;;;-1.32;76.92;102094.88;7394336;19;20500;-66
2022/03/07 07:53:30;;;;;;;15.85;11.77;;;;;;;-1.25;77.24;102096.94;7394692;19;20035;-66
2022/03/07 07:55:58;;;;;;;15.30;11.40;;;;;;;-1.18;76.97;102100.69;7394446;19;20035;-66
2022/03/07 07:58:26;;;;;;;13.30;10.95;;;;;;;-1.10;77.19;102094.22;7394681;19;20019;-67
2022/03/07 08:00:54;;;;;;;17.25;11.02;;;;;;;-1.02;76.76;102092.88;7395513;19;20019;-67
2022/03/07 08:03:25;;;;;;;17.35;11.15;;;;;;;-0.93;76.86;102091.56;7394851;19;20047;-66
2022/03/07 08:05:53;;;;;;;14.98;10.63;;;;;;;-0.85;76.32;102100.50;7396999;19;20018;-64
2022/03/07 08:08:21;;;;;;;15.18;10.68;;;;;;;-0.77;76.45;102098.28;7396495;19;20044;-65
2022/03/07 08:10:50;;;;;;;17.38;11.15;;;;;;;-0.69;76.29;102096.97;7394984;19;20491;-66
2022/03/07 08:13:18;;;;;;;14.50;11.75;;;;;;;-0.62;76.71;102104.19;7394334;19;20014;-65
2022/03/07 08:15:46;;;;;;;16.95;11.32;;;;;;;-0.54;76.91;102092.50;7394406;19;20010;-66
2022/03/07 08:18:14;;;;;;;20.10;12.82;;;;;;;-0.46;76.19;102095.44;7394091;19;20023;-66
2022/03/07 08:20:46;;;;;;;16.65;11.98;;;;;;;-0.37;76.07;102094.97;7394968;19;20024;-67
2022/03/07 08:23:14;;;;;;;20.08;12.95;;;;;;;-0.29;75.97;102091.03;7394992;19;20018;-66
2022/03/07 08:25:42;;;;;;;18.73;11.23;;;;;;;-0.22;75.86;102095.63;7395604;19;20372;-66
2022/03/07 08:28:10;;;;;;;16.20;11.38;;;;;;;-0.15;75.72;102099.38;7393808;19;20041;-67
2022/03/07 08:30:38;;;;;;;13.55;11.35;;;;;;;-0.07;75.82;102099.72;7393626;19;20015;-66
2022/03/07 08:33:06;;;;;;;16.95;12.15;;;;;;;0.01;75.78;102093.19;7392174;19;20027;-67
2022/03/07 08:35:34;;;;;;;20.95;14.63;;;;;;;0.09;75.60;102102.16;7395782;19;20015;-66
2022/03/07 08:38:05;;;;;;;19.30;12.60;;;;;;;0.17;75.78;102097.31;7394939;19;20022;-67
2022/03/07 08:40:33;;;;;;;18.48;12.90;;;;;;;0.25;75.52;102106.28;7395261;19;20364;-67
2022/03/07 08:43:02;;;;;;;16.25;11.88;;;;;;;0.35;76.39;102104.94;7392947;19;20345;-67
2022/03/07 08:45:30;;;;;;;15.98;12.40;;;;;;;0.44;76.14;102107.03;7394544;19;20011;-66
2022/03/07 08:47:58;;;;;;;17.77;13.60;;;;;;;0.54;75.44;102106.59;7395283;19;20017;-67
2022/03/07 08:50:26;;;;;;;19.17;12.32;;;;;;;0.64;75.67;102098.44;7393349;19;20018;-67
2022/03/07 08:52:54;;;;;;;16.45;11.38;;;;;;;0.73;75.20;102100.47;7393442;19;20472;-67
2022/03/07 08:55:25;;;;;;;16.27;11.75;;;;;;;0.80;75.20;102106.78;7394304;19;20014;-67
2022/03/07 08:57:53;;;;;;;16.75;12.40;;;;;;;0.88;74.71;102092.47;7393232;19;20022;-67
2022/03/07 09:00:22;;;;;;;14.02;10.88;;;;;;;0.95;74.62;102094.47;7392553;19;20011;-66
2022/03/07 09:02:50;;;;;;;17.85;13.07;;;;;;;1.04;74.85;102104.31;7393122;19;20374;-66
2022/03/07 09:05:18;;;;;;;20.27;12.95;;;;;;;1.11;74.61;102100.25;7392236;19;20503;-68
2022/03/07 09:07:47;;;;;;;15.68;11.30;;;;;;;1.19;74.36;102095.38;7394297;19;20022;-66
2022/03/07 09:10:15;;;;;;;14.90;10.70;;;;;;;1.27;74.61;102096.56;7394380;19;20031;-66
2022/03/07 09:12:46;;;;;;;14.50;11.70;;;;;;;1.35;73.75;102095.13;7392568;19;20086;-66
2022/03/07 09:15:14;;;;;;;17.20;11.50;;;;;;;1.43;73.88;102079.94;7392480;19;20374;-66
2022/03/07 09:17:43;;;;;;;14.38;10.40;;;;;;;1.50;73.76;102074.13;7393933;19;20025;-66
2022/03/07 09:20:13;;;;;;;15.13;10.73;;;;;;;1.57;73.61;102065.78;7392546;19;20015;-66
2022/03/07 09:22:41;;;;;;;15.75;10.85;;;;;;;1.63;73.23;102068.59;7391334;19;20029;-66
2022/03/07 09:25:10;;;;;;;24.52;14.05;;;;;;;1.71;73.21;102062.81;7391359;19;20031;-66
2022/03/07 09:27:39;;;;;;;15.32;10.18;;;;;;;1.75;72.91;102052.63;7392473;19;20026;-67
2022/03/07 09:30:12;;;;;;;16.48;11.00;;;;;;;1.82;72.71;102065.78;7391621;19;20014;-67
2022/03/07 09:32:40;;;;;;;15.82;11.00;;;;;;;1.88;72.61;102074.63;7393366;19;20045;-67
2022/03/07 09:35:08;;;;;;;15.55;11.13;;;;;;;1.95;72.45;102062.81;7394306;19;20018;-67
2022/03/07 09:37:37;;;;;;;18.25;10.60;;;;;;;2.01;72.01;102070.78;7391119;19;20483;-67
2022/03/07 09:40:07;;;;;;;13.52;11.05;;;;;;;2.06;71.89;102083.88;7390963;19;20509;-67
2022/03/07 09:42:35;;;;;;;15.35;10.23;;;;;;;2.10;72.17;102078.88;7391004;19;20014;-67
2022/03/07 09:45:03;;;;;;;17.35;10.73;;;;;;;2.15;71.92;102073.84;7391195;19;20015;-67
2022/03/07 09:47:36;;;;;;;17.85;11.25;;;;;;;2.16;71.28;102072.13;7393100;19;20014;-67
2022/03/07 09:50:04;;;;;;;16.15;10.68;;;;;;;2.27;71.22;102075.97;7391257;19;20022;-67
2022/03/07 09:52:32;;;;;;;12.15;9.88;;;;;;;2.34;71.54;102069.28;7391948;19;20029;-67
2022/03/07 09:55:01;;;;;;;16.50;9.45;;;;;;;2.40;70.79;102077.25;7392238;19;20393;-67
2022/03/07 09:57:29;;;;;;;14.20;9.57;;;;;;;2.48;70.74;102075.81;7392648;19;20015;-67
2022/03/07 09:59:58;;;;;;;13.20;10.20;;;;;;;2.54;70.67;102088.97;7394175;19;20424;-67
2022/03/07 10:02:28;;;;;;;14.00;10.00;;;;;;;2.60;70.51;102091.78;7397755;19;20019;-67
2022/03/07 10:05:02;;;;;;;16.15;9.95;;;;;;;2.64;70.06;102071.13;7401002;19;20018;-67
2022/03/07 10:07:30;;;;;;;13.65;9.57;;;;;;;2.71;70.53;102078.28;7397026;19;20483;-66
2022/03/07 10:10:07;;;;;;;11.32;8.85;;;;;;;2.79;69.65;102081.09;7399879;19;20031;-67
2022/03/07 10:12:35;;;;;;;15.63;9.88;;;;;;;2.86;70.04;102068.38;7397289;19;20010;-66
2022/03/07 10:15:14;;;;;;;12.63;9.05;;;;;;;2.96;69.48;102068.66;7399700;19;20022;-66
2022/03/07 10:17:48;;;;;;;10.95;8.30;;;;;;;3.05;69.21;102064.66;7397512;19;20019;-66
2022/03/07 10:20:20;;;;;;;;;;;;;;;3.16;68.15;102053.72;7398280;19;20026;-67
2022/03/07 10:22:50;;;;;;;11.63;7.93;;;;;;;3.24;66.92;102062.63;7396653;19;20272;-66
2022/03/07 10:25:23;;;;;;;12.50;7.72;;;;;;;3.34;67.37;102067.25;7397395;19;20018;-66
2022/03/07 10:27:52;;;;;;;11.05;7.45;;;;;;;3.44;68.03;102052.81;7399666;19;20089;-66
2022/03/07 10:30:22;;;;;;;10.10;7.25;;;;;;;3.56;66.80;102057.47;7396705;19;20019;-66
2022/03/07 10:32:55;;;;;;;10.07;5.93;;;;;;;3.64;65.65;102040.41;7398313;19;20019;-66
2022/03/07 10:35:28;;;;;;;10.85;6.47;;;;;;;3.72;65.53;102053.59;7398985;19;20027;-66
2022/03/07 10:38:02;;;;;;;8.30;7.00;;;;;;;3.81;65.79;102052.97;7399610;19;20015;-66
2022/03/07 10:40:31;;;;;;;9.05;5.78;;;;;;;3.88;64.14;102050.59;7397580;19;20030;-65
2022/03/07 10:43:00;;;;;;;11.55;6.00;;;;;;;3.97;65.33;102049.06;7396427;19;20029;-65
2022/03/07 10:45:29;;;;;;;9.68;5.95;;;;;;;4.03;63.37;102052.72;7398760;19;20029;-67
2022/03/07 10:48:00;;;;;;;12.30;5.75;;;;;;;4.13;63.23;102055.53;7398270;19;20015;-67
2022/03/07 10:50:32;;;;;;;10.18;5.70;;;;;;;4.20;62.32;102044.47;7398620;19;20014;-67
2022/03/07 10:53:02;;;;;;;7.78;4.78;;;;;;;4.28;59.81;102039.47;7396489;19;20039;-66
2022/03/07 10:55:33;;;;;;;8.35;4.88;;;;;;;4.35;61.62;102052.66;7396583;19;20019;-65
2022/03/07 10:58:09;;;;;;;9.45;5.55;;;;;;;4.40;59.75;102050.19;7396556;19;20022;-66
2022/03/07 11:00:49;;;;;;;7.97;5.82;;;;;;;4.45;58.75;102047.66;7399114;19;20018;-67
2022/03/07 11:03:20;;;;;;;6.88;5.50;;;;;;;4.51;60.17;102033.13;7396991;19;20050;-67
2022/03/07 11:05:51;;;;;;;9.60;5.45;;;;;;;4.59;60.96;102029.81;7398143;19;20022;-67
2022/03/07 11:08:22;;;;;;;7.97;3.60;;;;;;;4.64;58.32;102033.38;7398604;19;20015;-68
2022/03/07 11:10:52;;;;;;;7.63;4.20;;;;;;;4.70;58.94;102024.03;7394145;19;20479;-68
2022/03/07 11:13:25;;;;;;;4.53;3.78;;;;;;;4.76;58.31;102033.69;7396422;19;20053;-66
2022/03/07 11:15:54;;;;;;;5.95;3.50;;;;;;;4.82;54.18;102030.34;7397861;19;20045;-69
2022/03/07 11:18:22;;;;;;;9.68;4.60;;;;;;;4.88;56.61;102020.97;7397524;19;20018;-70
2022/03/07 11:20:56;;;;;;;7.35;5.05;;;;;;;4.95;57.01;102031.50;7395464;19;20027;-67
2022/03/07 11:23:24;;;;;;;9.40;4.28;;;;;;;5.01;53.85;102034.25;7395987;19;20018;-67
2022/03/07 11:25:54;;;;;;;5.85;3.75;;;;;;;5.02;53.64;102030.81;7394625;19;20483;-68
2022/03/07 11:28:25;;;;;;;6.65;4.82;;;;;;;5.09;55.38;102026.59;7395324;19;20028;-68